createdAt,value
2022-12-31T00:00:15.111Z,97074.97
2022-12-31T00:02:42.097Z,97080.91
2022-12-31T00:05:09.774Z,97086.31
2022-12-31T00:10:04.508Z,97077.88
2022-12-31T00:12:31.475Z,97087.50
2022-12-31T00:14:58.167Z,97085.19
2022-12-31T00:17:25.061Z,97072.28
2022-12-31T00:19:51.979Z,97070.34
2022-12-31T00:22:18.778Z,97074.66
2022-12-31T00:24:45.435Z,97072.41
2022-12-31T00:27:13.554Z,97068.28
2022-12-31T00:29:42.908Z,97065.88
2022-12-31T00:32:09.527Z,97078.00
2022-12-31T00:34:36.247Z,97083.28
2022-12-31T00:37:02.961Z,97081.28
2022-12-31T00:39:29.766Z,97074.72
2022-12-31T00:41:56.458Z,97078.00
2022-12-31T00:44:24.599Z,97080.50
2022-12-31T00:46:51.296Z,97074.63
2022-12-31T00:49:18.228Z,97074.91
2022-12-31T00:51:46.732Z,97051.06
2022-12-31T00:54:13.761Z,97077.00
2022-12-31T00:56:40.814Z,97078.94
2022-12-31T00:59:07.635Z,97060.59
2022-12-31T01:01:38.073Z,97058.00
2022-12-31T01:04:07.359Z,97087.78
2022-12-31T01:06:34.147Z,97092.06
2022-12-31T01:09:01.020Z,97075.38
2022-12-31T01:11:30.691Z,97086.66
2022-12-31T01:13:59.441Z,97077.75
2022-12-31T01:16:27.753Z,97079.63
2022-12-31T01:18:58.292Z,97090.00
2022-12-31T01:21:25.240Z,97092.63
2022-12-31T01:23:52.141Z,97090.59
2022-12-31T01:26:19.801Z,97092.81
2022-12-31T01:28:47.611Z,97090.97
2022-12-31T01:31:15.869Z,97099.09
2022-12-31T01:33:43.710Z,97100.00
2022-12-31T01:36:13.996Z,97130.81
2022-12-31T01:38:41.872Z,97082.22
2022-12-31T01:41:12.296Z,97110.78
2022-12-31T01:43:48.425Z,97105.41
2022-12-31T01:46:23.883Z,97079.75
2022-12-31T01:48:52.879Z,97077.81
2022-12-31T01:51:21.806Z,97084.09
2022-12-31T01:53:49.955Z,97098.59
2022-12-31T01:56:18.280Z,97093.31
2022-12-31T01:58:49.695Z,97107.50
2022-12-31T02:01:22.125Z,97090.28
2022-12-31T02:03:48.843Z,97102.44
2022-12-31T02:06:20.285Z,97114.84
2022-12-31T02:08:48.706Z,97091.44
2022-12-31T02:11:26.116Z,97105.75
2022-12-31T02:13:58.613Z,97105.34
2022-12-31T02:16:34.474Z,97101.19
2022-12-31T02:19:13.159Z,97084.13
2022-12-31T02:21:50.916Z,97100.25
2022-12-31T02:24:58.235Z,97078.84
2022-12-31T02:27:40.104Z,97085.03
2022-12-31T02:30:11.936Z,97114.25
2022-12-31T02:32:54.880Z,97096.41
2022-12-31T02:35:27.726Z,97082.16
2022-12-31T02:38:01.650Z,97085.84
2022-12-31T02:40:28.959Z,97078.34
2022-12-31T02:42:55.971Z,97103.56
2022-12-31T02:45:37.255Z,97102.63
2022-12-31T02:48:37.615Z,97098.78
2022-12-31T02:51:24.119Z,97111.72
2022-12-31T02:54:11.599Z,97114.75
2022-12-31T02:56:42.256Z,97110.13
2022-12-31T02:59:34.126Z,97104.19
2022-12-31T03:02:16.191Z,97104.00
2022-12-31T03:04:46.093Z,97100.88
2022-12-31T03:07:15.128Z,97091.00
2022-12-31T03:09:41.884Z,97106.91
2022-12-31T03:12:30.130Z,97090.03
2022-12-31T03:14:57.034Z,97088.28
2022-12-31T03:17:25.821Z,97087.94
2022-12-31T03:20:11.469Z,97075.97
2022-12-31T03:22:41.266Z,97087.66
2022-12-31T03:25:30.040Z,97095.19
2022-12-31T03:27:57.688Z,97117.88
2022-12-31T03:30:25.246Z,97107.19
2022-12-31T03:32:56.196Z,97107.53
2022-12-31T03:35:23.475Z,62402.38
2022-12-31T03:37:50.855Z,62402.38
2022-12-31T03:40:20.120Z,62402.38
2022-12-31T03:42:46.896Z,62402.38
2022-12-31T03:45:15.606Z,62402.38
2022-12-31T03:47:42.372Z,62402.38
2022-12-31T03:50:12.523Z,62402.38
2022-12-31T03:52:39.588Z,62402.38
2022-12-31T03:55:07.348Z,62402.38
2022-12-31T03:57:34.234Z,62402.38
2022-12-31T04:00:00.965Z,62402.38
2022-12-31T04:02:29.408Z,62402.38
2022-12-31T04:04:56.350Z,62402.38
2022-12-31T04:07:24.718Z,62402.38
2022-12-31T04:09:51.652Z,62402.38
2022-12-31T04:12:18.513Z,62402.38
2022-12-31T04:14:45.110Z,62402.38
2022-12-31T04:17:11.827Z,62402.38
2022-12-31T04:19:38.644Z,62402.38
2022-12-31T04:22:05.661Z,62402.38
2022-12-31T04:24:33.814Z,62402.38
2022-12-31T04:27:07.021Z,62402.38
2022-12-31T04:29:34.132Z,62402.38
2022-12-31T04:32:01.704Z,62402.38
2022-12-31T04:34:28.452Z,62402.38
2022-12-31T04:36:55.210Z,62402.38
2022-12-31T04:39:21.927Z,62402.38
2022-12-31T04:41:50.090Z,62402.38
2022-12-31T04:44:17.220Z,62402.38
2022-12-31T04:46:44.234Z,62402.38
2022-12-31T04:49:11.197Z,62402.38
2022-12-31T04:51:38.378Z,62402.38
2022-12-31T04:54:05.217Z,62402.38
2022-12-31T04:56:32.735Z,62402.38
2022-12-31T04:59:00.802Z,62402.38
2022-12-31T05:01:27.727Z,62402.38
2022-12-31T05:03:54.771Z,62402.38
2022-12-31T05:06:23.479Z,62402.38
2022-12-31T05:08:50.526Z,62402.38
2022-12-31T05:11:17.776Z,62402.38
2022-12-31T05:13:44.705Z,62402.38
2022-12-31T05:16:12.833Z,62402.38
2022-12-31T05:18:39.540Z,62402.38
2022-12-31T05:21:06.825Z,62402.38
2022-12-31T05:23:33.941Z,62402.38
2022-12-31T05:26:01.747Z,62402.38
2022-12-31T05:28:28.569Z,62402.38
2022-12-31T05:30:55.926Z,62402.38
2022-12-31T05:33:24.031Z,62402.38
2022-12-31T05:35:50.772Z,62402.38
2022-12-31T05:38:17.651Z,62402.38
2022-12-31T05:40:44.703Z,62402.38
2022-12-31T05:43:11.671Z,62402.38
2022-12-31T05:45:38.504Z,62402.38
2022-12-31T05:48:06.188Z,62402.38
2022-12-31T05:50:34.234Z,62402.38
2022-12-31T05:53:00.921Z,62402.38
2022-12-31T05:55:27.715Z,62402.38
2022-12-31T05:57:54.536Z,62402.38
2022-12-31T06:00:24.626Z,62402.38
2022-12-31T06:02:51.360Z,62402.38
2022-12-31T06:05:24.163Z,62402.38
2022-12-31T06:07:54.106Z,62402.38
2022-12-31T06:10:20.777Z,62402.38
2022-12-31T06:12:47.701Z,62402.38
2022-12-31T06:15:14.395Z,62402.38
2022-12-31T06:17:41.127Z,62402.38
2022-12-31T06:20:12.746Z,62402.38
2022-12-31T06:22:40.114Z,62402.38
2022-12-31T06:25:11.586Z,62402.38
2022-12-31T06:27:38.358Z,62402.38
2022-12-31T06:30:06.099Z,62402.38
2022-12-31T06:32:32.939Z,62402.38
2022-12-31T06:34:59.672Z,62402.38
2022-12-31T06:37:26.448Z,62402.38
2022-12-31T06:39:53.229Z,62402.38
2022-12-31T06:42:21.268Z,62402.38
2022-12-31T06:44:48.117Z,62402.38
2022-12-31T06:47:14.791Z,62402.38
2022-12-31T06:49:41.444Z,62402.38
2022-12-31T06:52:08.410Z,62402.38
2022-12-31T06:54:35.793Z,62402.38
2022-12-31T06:57:03.075Z,62402.38
2022-12-31T06:59:31.775Z,62402.38
2022-12-31T07:02:12.606Z,62402.38
2022-12-31T07:05:02.479Z,62402.38
2022-12-31T07:07:34.099Z,62402.38
2022-12-31T07:10:11.131Z,62402.38
2022-12-31T07:12:58.507Z,62402.38
2022-12-31T07:15:40.857Z,97283.63
2022-12-31T07:18:20.526Z,97283.63
2022-12-31T07:20:47.910Z,97277.84
2022-12-31T07:23:15.248Z,97294.94
2022-12-31T07:25:50.073Z,97292.88
2022-12-31T07:28:27.830Z,97294.59
2022-12-31T07:31:02.904Z,97319.50
2022-12-31T07:33:51.668Z,97312.16
2022-12-31T07:36:31.445Z,97322.50
2022-12-31T07:39:05.738Z,97304.00
2022-12-31T07:41:48.720Z,97315.97
2022-12-31T07:44:33.527Z,97327.94
2022-12-31T07:47:05.061Z,97318.84
2022-12-31T07:49:33.989Z,97321.56
2022-12-31T07:52:01.336Z,97328.63
2022-12-31T07:54:28.073Z,97347.78
2022-12-31T07:56:55.117Z,97354.66
2022-12-31T07:59:34.447Z,97342.38
2022-12-31T08:02:13.726Z,97349.06
2022-12-31T08:04:49.652Z,97348.44
2022-12-31T08:07:22.435Z,97353.41
2022-12-31T08:10:02.186Z,97348.13
2022-12-31T08:12:34.369Z,97354.72
2022-12-31T08:15:01.739Z,97373.56
2022-12-31T08:17:30.383Z,97378.03
2022-12-31T08:19:57.605Z,97358.22
2022-12-31T08:22:59.667Z,97381.41
2022-12-31T08:25:34.578Z,97368.75
2022-12-31T08:28:12.223Z,97387.16
2022-12-31T08:30:56.252Z,97360.00
2022-12-31T08:33:29.074Z,97382.22
2022-12-31T08:36:10.997Z,97372.66
2022-12-31T08:38:47.815Z,97356.81
2022-12-31T08:41:24.722Z,97378.22
2022-12-31T08:44:02.942Z,97365.44
2022-12-31T08:46:34.494Z,97360.28
2022-12-31T08:49:03.137Z,97381.91
2022-12-31T08:51:30.887Z,97370.38
2022-12-31T08:53:58.217Z,97351.53
2022-12-31T08:56:30.474Z,97357.13
2022-12-31T08:59:15.125Z,97370.72
2022-12-31T09:01:56.775Z,97380.63
2022-12-31T09:04:31.473Z,97381.41
2022-12-31T09:07:01.811Z,97403.78
2022-12-31T09:09:39.429Z,97393.56
2022-12-31T09:12:13.749Z,97400.75
2022-12-31T09:14:47.558Z,97399.16
2022-12-31T09:17:38.240Z,97428.72
2022-12-31T09:20:14.079Z,97414.19
2022-12-31T09:22:41.466Z,97401.09
2022-12-31T09:25:13.362Z,97403.31
2022-12-31T09:27:46.306Z,97421.22
2022-12-31T09:30:16.207Z,97416.41
2022-12-31T09:32:51.923Z,97419.78
2022-12-31T09:35:35.717Z,97421.69
2022-12-31T09:38:11.662Z,97413.69
2022-12-31T09:41:11.499Z,97407.97
2022-12-31T09:44:04.927Z,97405.53
2022-12-31T09:47:06.707Z,97425.72
2022-12-31T09:50:18.444Z,97405.63
2022-12-31T09:53:06.099Z,97403.88
2022-12-31T09:55:37.332Z,97411.88
2022-12-31T09:58:27.457Z,97410.59
2022-12-31T10:01:02.108Z,97408.88
2022-12-31T10:03:42.783Z,97431.91
2022-12-31T10:06:21.580Z,97430.16
2022-12-31T10:09:06.817Z,97437.22
2022-12-31T10:12:00.327Z,97439.47
2022-12-31T10:14:47.683Z,97439.47
2022-12-31T10:17:28.597Z,97433.72
2022-12-31T10:20:16.354Z,97431.47
2022-12-31T10:22:53.130Z,97423.34
2022-12-31T10:25:39.203Z,97419.38
2022-12-31T10:28:18.274Z,97437.13
2022-12-31T10:30:54.366Z,97438.25
2022-12-31T10:33:33.661Z,97431.19
2022-12-31T10:36:08.212Z,97437.91
2022-12-31T10:38:45.961Z,97439.34
2022-12-31T10:41:46.597Z,97440.63
2022-12-31T10:44:35.357Z,97434.06
2022-12-31T10:47:43.493Z,97435.84
2022-12-31T10:50:33.529Z,97442.06
2022-12-31T10:53:38.406Z,97458.06
2022-12-31T10:56:31.002Z,97449.44
2022-12-31T10:59:31.541Z,97456.94
2022-12-31T11:02:22.470Z,97449.91
2022-12-31T11:05:28.016Z,97463.50
2022-12-31T11:08:02.740Z,97469.53
2022-12-31T11:11:08.544Z,97466.34
2022-12-31T11:14:23.000Z,97484.56
2022-12-31T11:17:02.580Z,97480.38
2022-12-31T11:19:37.783Z,97502.91
2022-12-31T11:22:23.836Z,97487.41
2022-12-31T11:25:14.562Z,97470.31
2022-12-31T11:27:53.753Z,97481.50
2022-12-31T11:30:24.517Z,97483.09
2022-12-31T11:33:11.103Z,97482.47
2022-12-31T11:35:52.556Z,97465.66
2022-12-31T11:38:25.017Z,97482.94
2022-12-31T11:41:05.404Z,97482.94
2022-12-31T11:43:38.522Z,97475.28
2022-12-31T11:46:25.450Z,97480.09
2022-12-31T11:49:21.874Z,97474.97
2022-12-31T11:52:04.143Z,97477.09
2022-12-31T11:54:45.803Z,97473.56
2022-12-31T11:57:23.421Z,97485.25
2022-12-31T11:59:55.575Z,97478.38
2022-12-31T12:02:28.241Z,97472.28
2022-12-31T12:05:03.686Z,97467.00
2022-12-31T12:07:35.153Z,97463.34
2022-12-31T12:10:15.387Z,97458.06
2022-12-31T12:12:42.760Z,97449.75
2022-12-31T12:15:11.469Z,97445.28
2022-12-31T12:17:39.273Z,97433.28
2022-12-31T12:20:15.546Z,97432.63
2022-12-31T12:22:49.777Z,97442.91
2022-12-31T12:25:19.362Z,97462.25
2022-12-31T12:27:47.406Z,97444.50
2022-12-31T12:30:21.470Z,97458.25
2022-12-31T12:32:53.700Z,97453.13
2022-12-31T12:35:26.977Z,97439.53
2022-12-31T12:38:01.616Z,97443.38
2022-12-31T12:40:33.831Z,97429.75
2022-12-31T12:43:02.617Z,97437.91
2022-12-31T12:45:37.968Z,97438.09
2022-12-31T12:48:13.026Z,97439.53
2022-12-31T12:50:45.060Z,97445.13
2022-12-31T12:53:19.985Z,97444.03
2022-12-31T12:55:54.279Z,97435.03
2022-12-31T12:58:34.338Z,97435.03
2022-12-31T13:01:10.047Z,97441.78
2022-12-31T13:07:14.407Z,97450.41
2022-12-31T13:09:56.769Z,97454.56
2022-12-31T13:12:48.821Z,97447.34
2022-12-31T13:15:26.255Z,97449.63
2022-12-31T13:18:03.251Z,97446.06
2022-12-31T13:20:35.325Z,97439.19
2022-12-31T13:23:13.236Z,97442.25
2022-12-31T13:25:55.204Z,97452.00
2022-12-31T13:28:24.839Z,97432.47
2022-12-31T13:31:01.764Z,97447.19
2022-12-31T13:33:37.344Z,97432.97
2022-12-31T13:36:08.098Z,97435.34
2022-12-31T13:38:40.172Z,97434.53
2022-12-31T13:41:13.205Z,97415.03
2022-12-31T13:43:50.654Z,97421.75
2022-12-31T13:46:25.455Z,97408.63
2022-12-31T13:48:56.339Z,97425.59
2022-12-31T13:51:29.852Z,97431.66
2022-12-31T13:54:05.685Z,97429.59
2022-12-31T13:56:37.740Z,97435.81
2022-12-31T13:59:13.762Z,97463.31
2022-12-31T14:01:44.078Z,97448.78
2022-12-31T14:04:16.964Z,97461.88
2022-12-31T14:06:49.516Z,97479.47
2022-12-31T14:09:22.725Z,97475.63
2022-12-31T14:12:13.489Z,97477.19
2022-12-31T14:14:46.215Z,97472.69
2022-12-31T14:17:23.229Z,97487.56
2022-12-31T14:20:01.882Z,97487.56
2022-12-31T14:22:37.589Z,97487.28
2022-12-31T14:25:15.769Z,97485.19
2022-12-31T14:27:44.779Z,97495.56
2022-12-31T14:30:16.598Z,97489.50
2022-12-31T14:33:05.311Z,97485.47
2022-12-31T14:35:52.303Z,97492.03
2022-12-31T14:38:33.833Z,97494.22
2022-12-31T14:41:22.850Z,97482.69
2022-12-31T14:44:01.503Z,97497.91
2022-12-31T14:46:36.288Z,97481.59
2022-12-31T14:49:21.265Z,97481.44
2022-12-31T14:51:48.068Z,97471.53
2022-12-31T14:54:29.436Z,97479.19
2022-12-31T14:56:57.565Z,97479.19
2022-12-31T14:59:27.815Z,97483.63
2022-12-31T15:01:55.278Z,97487.50
2022-12-31T15:04:32.503Z,97495.66
2022-12-31T15:07:08.263Z,97491.78
2022-12-31T15:09:59.388Z,97498.03
2022-12-31T15:12:46.864Z,97495.16
2022-12-31T15:15:58.152Z,97508.41
2022-12-31T15:18:52.442Z,97499.31
2022-12-31T15:21:40.935Z,97510.38
2022-12-31T15:24:19.221Z,97510.25
2022-12-31T15:26:52.479Z,97513.34
2022-12-31T15:29:26.615Z,97505.25
2022-12-31T15:31:54.501Z,97502.66
2022-12-31T15:34:26.347Z,97495.16
2022-12-31T15:36:55.736Z,97496.63
2022-12-31T15:39:26.372Z,97492.97
2022-12-31T15:44:50.144Z,97493.63
2022-12-31T15:47:27.910Z,97493.63
2022-12-31T15:49:55.661Z,97490.56
2022-12-31T15:52:27.567Z,97501.97
2022-12-31T15:54:56.919Z,97500.88
2022-12-31T15:57:32.304Z,97501.34
2022-12-31T16:00:05.111Z,97492.84
2022-12-31T16:02:32.111Z,97491.72
2022-12-31T16:04:58.964Z,97488.84
2022-12-31T16:07:28.427Z,97491.09
2022-12-31T16:09:58.710Z,97509.16
2022-12-31T16:12:33.560Z,97499.44
2022-12-31T16:15:03.304Z,97504.53
2022-12-31T16:17:32.721Z,97490.97
2022-12-31T16:20:00.790Z,97482.00
2022-12-31T16:22:35.694Z,97491.91
2022-12-31T16:25:29.697Z,97487.09
2022-12-31T16:27:50.666Z,97500.03
2022-12-31T16:30:22.997Z,97492.81
2022-12-31T16:32:51.251Z,97485.53
2022-12-31T16:35:24.053Z,97493.34
2022-12-31T16:38:10.179Z,97483.28
2022-12-31T16:40:37.511Z,97538.28
2022-12-31T16:43:04.593Z,97493.19
2022-12-31T16:45:35.438Z,97501.97
2022-12-31T16:48:16.404Z,97464.09
2022-12-31T16:50:45.292Z,97469.53
2022-12-31T16:53:14.584Z,97496.22
2022-12-31T16:55:41.883Z,97486.28
2022-12-31T16:58:21.578Z,97487.28
2022-12-31T17:00:51.057Z,97495.09
2022-12-31T17:03:20.714Z,97486.00
2022-12-31T17:05:57.028Z,97497.03
2022-12-31T17:08:26.099Z,97482.81
2022-12-31T17:10:53.424Z,97497.63
2022-12-31T17:13:29.694Z,97500.94
2022-12-31T17:15:59.371Z,97495.34
2022-12-31T17:18:30.348Z,97489.59
2022-12-31T17:21:06.799Z,97506.25
2022-12-31T17:23:35.899Z,97490.25
2022-12-31T17:26:10.359Z,97516.91
2022-12-31T17:28:44.103Z,97490.75
2022-12-31T17:31:29.062Z,97497.00
2022-12-31T17:34:32.673Z,97504.19
2022-12-31T17:37:17.677Z,62402.38
2022-12-31T17:39:50.571Z,97488.03
2022-12-31T17:42:28.331Z,97507.03
2022-12-31T17:44:58.698Z,97493.28
2022-12-31T17:47:33.587Z,97482.25
2022-12-31T17:50:06.643Z,97493.16
2022-12-31T17:52:33.347Z,97510.72
2022-12-31T17:55:00.087Z,97497.75
2022-12-31T17:57:28.149Z,97492.63
2022-12-31T17:59:55.088Z,97496.81
2022-12-31T18:02:21.888Z,97502.25
2022-12-31T18:04:50.149Z,97502.91
2022-12-31T18:07:16.988Z,97513.78
2022-12-31T18:09:43.778Z,97508.78
2022-12-31T18:12:12.462Z,97494.28
2022-12-31T18:14:39.678Z,97512.66
2022-12-31T18:17:09.267Z,97512.78
2022-12-31T18:20:03.774Z,97523.53
2022-12-31T18:22:24.098Z,97524.16
2022-12-31T18:24:54.284Z,97539.19
2022-12-31T18:27:21.059Z,97513.78
2022-12-31T18:29:47.977Z,97500.00
2022-12-31T18:32:20.558Z,97523.44
2022-12-31T18:34:47.472Z,97514.31
2022-12-31T18:37:21.475Z,97518.09
2022-12-31T18:39:50.332Z,97515.97
2022-12-31T18:42:18.906Z,97528.25
2022-12-31T18:44:46.339Z,62402.38
2022-12-31T18:47:14.240Z,62402.38
2022-12-31T18:49:41.573Z,62402.38
2022-12-31T18:52:13.128Z,62402.38
2022-12-31T18:54:39.890Z,62402.38
2022-12-31T18:57:10.239Z,62402.38
2022-12-31T18:59:37.128Z,62402.38
2022-12-31T19:02:04.506Z,62402.38
2022-12-31T19:04:31.351Z,62402.38
2022-12-31T19:06:58.256Z,62402.38
2022-12-31T19:12:14.380Z,97522.19
2022-12-31T19:14:41.278Z,97535.28
2022-12-31T19:19:34.820Z,97535.44
2022-12-31T19:22:02.568Z,97531.44
2022-12-31T19:24:29.451Z,97538.22
2022-12-31T19:26:56.207Z,97544.41
2022-12-31T19:29:26.081Z,97551.56
2022-12-31T19:31:53.532Z,97535.78
2022-12-31T19:34:20.333Z,97536.78
2022-12-31T19:36:46.959Z,97539.84
2022-12-31T19:39:16.758Z,97537.13
2022-12-31T19:41:44.324Z,97540.28
2022-12-31T19:44:14.307Z,97554.03
2022-12-31T19:46:42.398Z,97562.00
2022-12-31T19:49:10.772Z,97542.84
2022-12-31T19:51:37.627Z,97547.84
2022-12-31T19:54:05.941Z,97537.22
2022-12-31T19:56:32.735Z,97553.19
2022-12-31T19:59:03.997Z,97544.28
2022-12-31T20:01:30.711Z,97553.09
2022-12-31T20:03:58.917Z,97557.25
2022-12-31T20:06:25.860Z,97554.66
2022-12-31T20:08:52.731Z,62402.38
2022-12-31T20:11:21.633Z,97557.28
2022-12-31T20:13:49.766Z,97564.91
2022-12-31T20:16:18.321Z,97566.47
2022-12-31T20:18:47.176Z,97563.59
2022-12-31T20:21:20.788Z,97568.19
2022-12-31T20:23:47.993Z,97573.03
2022-12-31T20:26:15.002Z,97565.31
2022-12-31T20:28:41.916Z,97570.66
2022-12-31T20:31:09.632Z,97567.84
2022-12-31T20:33:36.790Z,97581.56
2022-12-31T20:36:05.152Z,97562.28
2022-12-31T20:38:36.610Z,97563.69
2022-12-31T20:41:05.070Z,97551.69
2022-12-31T20:43:32.628Z,97562.03
2022-12-31T20:45:59.824Z,97539.84
2022-12-31T20:48:26.689Z,97561.09
2022-12-31T20:50:57.358Z,97546.81
2022-12-31T20:53:24.325Z,97559.78
2022-12-31T20:55:52.475Z,97547.50
2022-12-31T20:58:19.228Z,97555.78
2022-12-31T21:00:48.406Z,97559.78
2022-12-31T21:03:53.737Z,97571.59
2022-12-31T21:06:02.319Z,97567.28
2022-12-31T21:08:34.999Z,97577.44
2022-12-31T21:11:23.837Z,97580.09
2022-12-31T21:13:51.099Z,97572.63
2022-12-31T21:16:18.273Z,97581.06
2022-12-31T21:18:45.168Z,97598.63
2022-12-31T21:21:12.520Z,97585.22
2022-12-31T21:23:39.666Z,97603.81
2022-12-31T21:26:08.434Z,97596.28
2022-12-31T21:28:35.235Z,97593.91
2022-12-31T21:31:04.265Z,97592.59
2022-12-31T21:33:31.191Z,97604.09
2022-12-31T21:36:04.118Z,97603.19
2022-12-31T21:38:31.584Z,97620.66
2022-12-31T21:41:02.144Z,97607.38
2022-12-31T21:43:30.206Z,97597.13
2022-12-31T21:46:01.727Z,97597.28
2022-12-31T21:48:28.546Z,97604.78
2022-12-31T21:51:04.417Z,97607.81
2022-12-31T21:53:36.600Z,97592.38
2022-12-31T21:56:11.912Z,97593.78
2022-12-31T21:58:41.673Z,97605.59
2022-12-31T22:01:33.653Z,97619.94
2022-12-31T22:04:00.633Z,97614.25
2022-12-31T22:06:27.617Z,97609.97
2022-12-31T22:08:55.882Z,97613.09
2022-12-31T22:11:24.880Z,97614.84
2022-12-31T22:13:53.760Z,97623.56
2022-12-31T22:16:21.498Z,97621.09
2022-12-31T22:18:49.529Z,97616.03
2022-12-31T22:21:19.937Z,97617.91
2022-12-31T22:23:48.637Z,97617.91
2022-12-31T22:26:17.690Z,97629.25
2022-12-31T22:28:45.820Z,97622.97
2022-12-31T22:31:30.601Z,97632.81
2022-12-31T22:33:58.586Z,97644.19
2022-12-31T22:36:25.462Z,97632.63
2022-12-31T22:38:58.221Z,97632.75
2022-12-31T22:41:26.121Z,97640.50
2022-12-31T22:44:02.572Z,97636.09
2022-12-31T22:46:33.255Z,97658.09
2022-12-31T22:49:01.713Z,97655.38
2022-12-31T22:51:57.671Z,97651.91
2022-12-31T22:54:16.463Z,97653.72
2022-12-31T22:56:43.334Z,97660.88
2022-12-31T22:59:10.244Z,97666.69
2022-12-31T23:01:38.514Z,97671.81
2022-12-31T23:04:05.361Z,97665.78
2022-12-31T23:06:32.445Z,97656.53
2022-12-31T23:09:18.019Z,97670.00
2022-12-31T23:11:44.740Z,97676.13
2022-12-31T23:14:35.075Z,97679.69
2022-12-31T23:17:31.563Z,97668.50
2022-12-31T23:20:17.834Z,97671.34
2022-12-31T23:23:03.768Z,97681.41
2022-12-31T23:25:34.544Z,97682.63
2022-12-31T23:28:01.853Z,97681.19
2022-12-31T23:30:28.832Z,97684.41
2022-12-31T23:32:57.055Z,97695.38
2022-12-31T23:35:23.805Z,97684.41
2022-12-31T23:37:50.576Z,97684.53
2022-12-31T23:40:21.521Z,97682.09
2022-12-31T23:42:49.110Z,97683.81
2022-12-31T23:45:16.117Z,97685.84
2022-12-31T23:47:42.926Z,97681.41
2022-12-31T23:50:11.058Z,97681.31
2022-12-31T23:52:37.818Z,97681.88
2022-12-31T23:55:05.064Z,97687.03
2022-12-31T23:57:31.909Z,97697.38
2022-12-31T23:59:58.753Z,97689.25
